Time;durP1;ratioP1;P1;durP2;ratioP2;P2;SDS_P1;SDS_P2;PMS_P1;PMS_P2;Temp;Humidity;BMP_temperature;BMP_pressure;BME280_temperature;BME280_humidity;BME280_pressure;Samples;Min_cycle;Max_cycle;Signal;HPM_P1;HPM_P2
2024/04/06 00:02:00;;;;;;;2.72;1.00;;;19.70;71.90;;;;;;2345469;54;20921;-68
2024/04/06 00:04:33;;;;;;;3.80;1.20;;;19.80;72.00;;;;;;2336573;54;21039;-68
2024/04/06 00:07:02;;;;;;;2.30;1.10;;;19.70;71.80;;;;;;2310583;55;20983;-69
2024/04/06 00:09:31;;;;;;;2.47;0.90;;;19.70;71.80;;;;;;2327147;54;21275;-68
2024/04/06 00:11:58;;;;;;;1.95;0.82;;;19.70;71.50;;;;;;2339937;54;20972;-69
2024/04/06 00:14:27;;;;;;;2.17;0.90;;;19.70;71.90;;;;;;2316195;54;20979;-69
2024/04/06 00:16:55;;;;;;;1.95;0.88;;;19.70;71.90;;;;;;2342396;54;20960;-68
2024/04/06 00:19:25;;;;;;;1.75;0.70;;;19.70;71.90;;;;;;2337459;54;21247;-69
2024/04/06 00:21:52;;;;;;;1.50;0.70;;;19.70;71.90;;;;;;2339907;55;20951;-69
2024/04/06 00:24:23;;;;;;;2.87;0.90;;;19.70;71.90;;;;;;2339489;55;20947;-69
2024/04/06 00:26:51;;;;;;;2.17;0.90;;;19.70;71.90;;;;;;2341525;55;20944;-68
2024/04/06 00:29:26;;;;;;;2.60;0.98;;;19.70;71.90;;;;;;2317798;54;20922;-68
2024/04/06 00:31:53;;;;;;;3.10;0.80;;;19.70;71.50;;;;;;2324370;54;21334;-68
2024/04/06 00:34:19;;;;;;;3.42;1.17;;;19.70;72.00;;;;;;2329060;54;21027;-68
2024/04/06 00:36:46;;;;;;;2.53;1.10;;;19.70;71.90;;;;;;2340062;55;21187;-73
2024/04/06 00:39:13;;;;;;;1.92;0.77;;;19.70;71.90;;;;;;2339572;54;20968;-69
2024/04/06 00:41:40;;;;;;;2.70;0.82;;;19.70;72.00;;;;;;2340153;55;20969;-68
2024/04/06 00:44:06;;;;;;;2.05;0.70;;;19.70;71.90;;;;;;2308713;54;21018;-68
2024/04/06 00:46:33;;;;;;;2.22;0.80;;;19.70;71.90;;;;;;2309110;54;21522;-68
2024/04/06 00:48:59;;;;;;;2.42;0.98;;;19.80;72.00;;;;;;2309308;54;20931;-69
2024/04/06 00:51:26;;;;;;;2.97;0.90;;;19.70;71.80;;;;;;2310913;54;20947;-69
2024/04/06 00:53:53;;;;;;;2.87;0.70;;;19.70;71.90;;;;;;2302071;54;21002;-70
2024/04/06 00:56:21;;;;;;;2.75;0.60;;;19.70;71.90;;;;;;2309585;56;21050;-68
2024/04/06 00:58:59;;;;;;;2.12;0.70;;;19.70;71.70;;;;;;2282508;54;21498;-69
2024/04/06 01:01:28;;;;;;;2.22;0.60;;;19.60;71.60;;;;;;2303147;54;20987;-69
2024/04/06 01:03:55;;;;;;;2.08;0.80;;;19.60;71.40;;;;;;2308940;54;21392;-69
2024/04/06 01:06:25;;;;;;;3.58;1.20;;;19.60;71.40;;;;;;2287448;54;21425;-71
2024/04/06 01:08:52;;;;;;;8.55;4.18;;;19.50;71.30;;;;;;2333110;54;20940;-68
2024/04/06 01:11:21;;;;;;;12.32;6.78;;;19.50;71.30;;;;;;2329738;54;20975;-71
2024/04/06 01:13:47;;;;;;;19.62;11.50;;;19.40;70.90;;;;;;2311239;54;20952;-70
2024/04/06 01:16:15;;;;;;;27.48;15.75;;;19.40;71.20;;;;;;2314547;54;20928;-68
2024/04/06 01:18:44;;;;;;;26.77;15.85;;;19.30;71.00;;;;;;2335515;55;20937;-69
2024/04/06 01:21:13;;;;;;;19.42;11.05;;;19.30;71.00;;;;;;2335900;54;20916;-72
2024/04/06 01:23:41;;;;;;;13.02;7.05;;;19.20;70.90;;;;;;2287790;55;20964;-70
2024/04/06 01:26:08;;;;;;;10.57;5.87;;;19.20;70.90;;;;;;2289626;54;21924;-68
2024/04/06 01:28:35;;;;;;;7.93;4.20;;;19.10;71.00;;;;;;2297116;54;21420;-70
2024/04/06 01:31:07;;;;;;;4.72;2.30;;;19.00;70.80;;;;;;2280458;54;21093;-68
2024/04/06 01:33:35;;;;;;;4.60;1.87;;;19.00;71.60;;;;;;2275118;54;21003;-69
2024/04/06 01:36:04;;;;;;;3.42;1.52;;;19.00;70.90;;;;;;2274691;54;21008;-68
2024/04/06 01:38:31;;;;;;;2.95;1.30;;;18.90;70.90;;;;;;2273535;54;21839;-71
2024/04/06 01:40:59;;;;;;;2.75;1.00;;;18.90;71.00;;;;;;2274190;54;21264;-69
2024/04/06 01:43:26;;;;;;;2.75;1.30;;;18.80;71.10;;;;;;2290228;54;20933;-70
2024/04/06 01:45:53;;;;;;;2.53;1.00;;;18.80;71.30;;;;;;2282459;54;20976;-70
2024/04/06 01:48:21;;;;;;;2.37;0.80;;;18.80;71.50;;;;;;2273743;54;21027;-69
2024/04/06 01:50:48;;;;;;;2.75;0.90;;;18.80;71.60;;;;;;2284638;54;21008;-68
2024/04/06 01:53:14;;;;;;;2.47;1.00;;;18.80;71.90;;;;;;2288925;54;20960;-69
2024/04/06 01:55:40;;;;;;;2.00;0.90;;;18.80;72.00;;;;;;2273854;54;20964;-69
2024/04/06 01:58:09;;;;;;;3.00;1.10;;;18.80;72.00;;;;;;2266278;55;21756;-68
2024/04/06 02:00:36;;;;;;;2.72;0.80;;;18.90;72.00;;;;;;2279857;54;21007;-70
2024/04/06 02:03:04;;;;;;;1.80;0.90;;;18.90;72.30;;;;;;2275573;54;21273;-69
2024/04/06 02:05:30;;;;;;;2.53;0.80;;;18.90;72.20;;;;;;2301163;54;21081;-68
2024/04/06 02:07:58;;;;;;;1.80;0.77;;;19.00;72.40;;;;;;2300357;54;22009;-68
2024/04/06 02:10:29;;;;;;;2.05;0.93;;;19.00;72.20;;;;;;2302732;54;20970;-69
2024/04/06 02:12:58;;;;;;;1.92;0.82;;;19.00;72.30;;;;;;2305660;54;20984;-69
2024/04/06 02:15:25;;;;;;;4.18;0.90;;;19.10;72.40;;;;;;2316610;54;20929;-68
2024/04/06 02:17:52;;;;;;;3.05;0.90;;;19.10;72.40;;;;;;2306029;54;20970;-70
2024/04/06 02:20:19;;;;;;;2.40;0.88;;;19.10;72.40;;;;;;2332905;53;21383;-69
2024/04/06 02:22:48;;;;;;;2.17;0.70;;;19.20;72.40;;;;;;2340631;53;20969;-71
2024/04/06 02:25:14;;;;;;;4.07;1.00;;;19.20;72.00;;;;;;2340872;53;21482;-69
2024/04/06 02:27:41;;;;;;;3.50;0.95;;;19.20;72.30;;;;;;2326646;53;21514;-69
2024/04/06 02:30:10;;;;;;;2.60;0.90;;;19.20;72.20;;;;;;2318981;53;20957;-68
2024/04/06 02:32:37;;;;;;;1.70;0.70;;;19.20;72.10;;;;;;2332477;53;20973;-68
2024/04/06 02:35:05;;;;;;;2.62;1.00;;;19.20;72.10;;;;;;2341295;53;20932;-70
2024/04/06 02:37:31;;;;;;;1.52;0.73;;;19.30;72.10;;;;;;2329125;53;21762;-69
2024/04/06 02:40:02;;;;;;;2.50;0.90;;;19.30;72.10;;;;;;2329063;53;21716;-69
2024/04/06 02:42:28;;;;;;;1.98;0.73;;;19.30;72.10;;;;;;2344279;53;20925;-69
2024/04/06 02:44:56;;;;;;;1.98;0.70;;;19.30;72.00;;;;;;2317382;54;20990;-68
2024/04/06 02:47:23;;;;;;;2.08;0.75;;;19.30;72.70;;;;;;2341973;53;20901;-68
2024/04/06 02:49:50;;;;;;;2.20;0.70;;;19.30;71.90;;;;;;2340755;53;21473;-68
2024/04/06 02:52:19;;;;;;;1.70;0.65;;;19.30;71.80;;;;;;2344904;54;20965;-69
2024/04/06 02:54:47;;;;;;;1.95;0.80;;;19.30;71.80;;;;;;2340989;53;21065;-68
2024/04/06 02:57:19;;;;;;;2.67;0.93;;;19.30;71.70;;;;;;2324971;53;20957;-71
2024/04/06 02:59:46;;;;;;;1.90;0.70;;;19.30;71.70;;;;;;2333828;53;21075;-68
2024/04/06 03:02:13;;;;;;;2.53;0.57;;;19.30;71.60;;;;;;2341756;53;21068;-67
2024/04/06 03:04:40;;;;;;;1.85;0.80;;;19.30;71.60;;;;;;2341116;53;20988;-69
2024/04/06 03:07:14;;;;;;;1.48;0.62;;;19.30;71.50;;;;;;2342820;53;21024;-68
2024/04/06 03:09:40;;;;;;;2.42;0.80;;;19.30;71.00;;;;;;2341484;53;21104;-69
2024/04/06 03:12:10;;;;;;;2.47;0.77;;;19.20;71.10;;;;;;2322172;53;21009;-68
2024/04/06 03:14:38;;;;;;;1.87;0.62;;;19.20;70.80;;;;;;2339547;53;20941;-68
2024/04/06 03:17:06;;;;;;;2.08;0.80;;;19.20;71.20;;;;;;2318900;54;21087;-69
2024/04/06 03:19:37;;;;;;;1.83;0.70;;;19.20;71.20;;;;;;2341454;53;22178;-69
2024/04/06 03:22:06;;;;;;;1.62;0.68;;;19.20;71.20;;;;;;2340723;53;21088;-69
2024/04/06 03:24:34;;;;;;;3.05;1.08;;;19.10;70.90;;;;;;2340642;53;21656;-68
2024/04/06 03:27:08;;;;;;;1.67;0.70;;;19.10;70.90;;;;;;2341102;53;20945;-68
2024/04/06 03:29:35;;;;;;;2.92;0.70;;;19.10;71.20;;;;;;2340449;53;20948;-70
2024/04/06 03:32:06;;;;;;;1.65;0.70;;;19.00;71.20;;;;;;2342594;53;21084;-70
2024/04/06 03:34:33;;;;;;;1.92;0.70;;;19.00;71.00;;;;;;2327334;54;20949;-69
2024/04/06 03:37:00;;;;;;;1.37;0.57;;;19.00;72.00;;;;;;2329636;54;20930;-71
2024/04/06 03:39:26;;;;;;;1.35;0.52;;;19.00;71.30;;;;;;2341207;53;20913;-69
2024/04/06 03:41:56;;;;;;;1.67;0.62;;;19.00;71.30;;;;;;2340471;53;21033;-70
2024/04/06 03:44:23;;;;;;;0.85;0.40;;;19.00;71.00;;;;;;2342006;53;21659;-69
2024/04/06 03:46:49;;;;;;;4.30;0.93;;;19.00;71.40;;;;;;2314048;54;20987;-70
2024/04/06 03:49:20;;;;;;;2.35;0.80;;;18.90;71.00;;;;;;2309258;54;20928;-68
2024/04/06 03:51:50;;;;;;;2.55;0.77;;;18.90;71.00;;;;;;2313998;54;20980;-69
2024/04/06 03:54:22;;;;;;;1.70;0.60;;;18.80;70.70;;;;;;2341410;53;20997;-70
2024/04/06 03:56:49;;;;;;;1.77;0.88;;;18.80;70.60;;;;;;2340733;53;20985;-69
2024/04/06 03:59:15;;;;;;;2.28;0.88;;;18.70;70.80;;;;;;2341138;53;21029;-71
2024/04/06 04:01:42;;;;;;;2.67;0.80;;;18.70;70.70;;;;;;2339686;53;20925;-69
2024/04/06 04:04:09;;;;;;;2.08;0.80;;;18.70;70.70;;;;;;2340891;53;21302;-69
2024/04/06 04:06:40;;;;;;;1.95;0.80;;;18.60;70.60;;;;;;2340950;53;20897;-69
2024/04/06 04:09:06;;;;;;;1.73;0.70;;;18.50;70.30;;;;;;2341721;53;20929;-70
2024/04/06 04:11:34;;;;;;;2.10;0.60;;;18.50;70.40;;;;;;2341329;53;20952;-71
2024/04/06 04:14:01;;;;;;;1.95;0.70;;;18.40;70.20;;;;;;2340747;53;20929;-68
2024/04/06 04:16:32;;;;;;;1.90;0.93;;;18.30;70.20;;;;;;2339761;53;21001;-69
2024/04/06 04:19:01;;;;;;;1.92;0.95;;;18.30;70.20;;;;;;2341018;53;21473;-68
2024/04/06 04:21:28;;;;;;;2.08;0.88;;;18.20;70.10;;;;;;2318740;53;20937;-70
2024/04/06 04:23:56;;;;;;;3.28;0.98;;;18.10;70.00;;;;;;2340921;53;20986;-69
2024/04/06 04:26:23;;;;;;;2.53;1.00;;;18.10;69.80;;;;;;2340702;53;21644;-69
2024/04/06 04:28:49;;;;;;;2.60;1.00;;;18.00;69.80;;;;;;2319700;54;20919;-69
2024/04/06 04:31:17;;;;;;;2.55;1.02;;;17.90;69.70;;;;;;2324952;53;21241;-71
2024/04/06 04:33:52;;;;;;;4.10;0.98;;;17.80;69.70;;;;;;2341890;53;21138;-70
2024/04/06 04:36:19;;;;;;;2.10;0.90;;;17.70;69.60;;;;;;2341366;53;20929;-68
2024/04/06 04:38:46;;;;;;;2.05;0.90;;;17.60;69.60;;;;;;2340548;53;20969;-67
2024/04/06 04:41:16;;;;;;;2.08;0.90;;;17.60;69.70;;;;;;2340766;53;20945;-68
2024/04/06 04:43:42;;;;;;;2.15;0.98;;;17.50;69.70;;;;;;2341743;53;21304;-67
2024/04/06 04:46:13;;;;;;;2.20;0.98;;;17.40;69.60;;;;;;2340626;53;20937;-69
2024/04/06 04:48:59;;;;;;;3.15;0.90;;;17.30;69.60;;;;;;2340238;53;20905;-70
2024/04/06 04:51:28;;;;;;;2.80;0.95;;;17.20;68.40;;;;;;2341805;53;20925;-68
2024/04/06 04:53:56;;;;;;;3.20;1.00;;;17.20;69.60;;;;;;2311553;54;21302;-69
2024/04/06 04:56:23;;;;;;;3.25;1.20;;;17.10;69.50;;;;;;2339221;53;21185;-71
2024/04/06 04:58:49;;;;;;;2.75;1.00;;;17.00;69.40;;;;;;2340526;53;20913;-67
2024/04/06 05:01:17;;;;;;;2.35;1.00;;;16.90;69.30;;;;;;2341084;53;21225;-69
2024/04/06 05:03:43;;;;;;;2.55;1.10;;;16.80;69.20;;;;;;2332251;53;21014;-71
2024/04/06 05:06:10;;;;;;;1.95;0.90;;;16.80;69.30;;;;;;2340845;54;20973;-70
2024/04/06 05:08:36;;;;;;;2.00;0.90;;;16.70;69.40;;;;;;2341451;53;20969;-70
2024/04/06 05:11:03;;;;;;;1.77;0.90;;;16.60;69.30;;;;;;2340837;53;20925;-71
2024/04/06 05:13:31;;;;;;;2.97;1.00;;;16.50;69.30;;;;;;2338334;53;20906;-68
2024/04/06 05:16:02;;;;;;;2.95;1.33;;;16.40;69.30;;;;;;2333075;53;21509;-69
2024/04/06 05:18:28;;;;;;;3.62;0.95;;;16.30;68.90;;;;;;2318770;54;21101;-69
2024/04/06 05:21:01;;;;;;;2.55;1.00;;;16.30;69.40;;;;;;2336029;53;21296;-71
2024/04/06 05:23:31;;;;;;;2.53;1.20;;;16.20;69.20;;;;;;2336034;53;20958;-72
2024/04/06 05:25:58;;;;;;;2.65;1.02;;;16.10;69.60;;;;;;2321889;53;21492;-69
2024/04/06 05:28:25;;;;;;;4.80;1.20;;;16.00;69.60;;;;;;2342127;53;21036;-68
2024/04/06 05:30:53;;;;;;;2.83;1.08;;;16.00;69.70;;;;;;2341993;53;21159;-68
2024/04/06 05:33:21;;;;;;;3.97;1.40;;;15.90;69.80;;;;;;2317373;54;25573;-69
2024/04/06 05:35:49;;;;;;;2.12;1.08;;;15.70;69.60;;;;;;2340484;53;21625;-68
2024/04/06 05:38:16;;;;;;;2.70;1.25;;;15.80;70.60;;;;;;2341030;53;20973;-68
2024/04/06 05:40:44;;;;;;;2.58;1.20;;;15.80;70.10;;;;;;2341086;53;20965;-69
2024/04/06 05:43:10;;;;;;;2.50;1.10;;;15.70;70.10;;;;;;2340343;53;21351;-68
2024/04/06 05:45:37;;;;;;;2.80;1.10;;;15.70;70.30;;;;;;2340945;53;20982;-69
2024/04/06 05:48:05;;;;;;;3.20;1.35;;;15.70;70.50;;;;;;2316999;54;20924;-68
2024/04/06 05:50:35;;;;;;;4.93;1.40;;;15.60;70.50;;;;;;2343140;53;21000;-70
2024/04/06 05:53:02;;;;;;;3.53;1.10;;;15.60;70.70;;;;;;2315800;54;20926;-70
2024/04/06 05:55:28;;;;;;;2.83;1.40;;;15.60;70.80;;;;;;2340905;53;20985;-70
2024/04/06 05:57:58;;;;;;;3.22;1.30;;;15.60;71.00;;;;;;2341425;53;21743;-69
2024/04/06 06:00:24;;;;;;;2.95;1.33;;;15.60;71.00;;;;;;2342076;53;21394;-70
2024/04/06 06:02:58;;;;;;;2.92;1.50;;;15.50;71.20;;;;;;2316837;54;21005;-67
2024/04/06 06:05:25;;;;;;;4.28;1.60;;;15.50;71.20;;;;;;2325963;53;21012;-71
2024/04/06 06:07:52;;;;;;;3.33;1.77;;;15.50;71.50;;;;;;2318887;54;20925;-67
2024/04/06 06:10:18;;;;;;;3.83;1.70;;;15.50;71.60;;;;;;2332476;53;20989;-67
2024/04/06 06:12:48;;;;;;;3.80;1.77;;;15.50;71.80;;;;;;2341017;53;20913;-71
2024/04/06 06:15:15;;;;;;;3.45;1.67;;;15.50;71.90;;;;;;2321513;53;21013;-71
2024/04/06 06:17:41;;;;;;;2.40;1.20;;;15.50;72.10;;;;;;2338467;53;21012;-68
2024/04/06 06:20:09;;;;;;;3.95;1.30;;;15.60;72.40;;;;;;2340566;53;20918;-69
2024/04/06 06:22:36;;;;;;;4.32;1.70;;;15.60;72.60;;;;;;2340581;53;21356;-70
2024/04/06 06:25:03;;;;;;;4.05;1.75;;;15.60;72.70;;;;;;2340845;53;20928;-69
2024/04/06 06:27:33;;;;;;;4.10;1.48;;;15.60;72.90;;;;;;2316885;55;20941;-71
2024/04/06 06:30:02;;;;;;;2.95;1.40;;;15.70;73.20;;;;;;2309195;53;20952;-68
2024/04/06 06:32:28;;;;;;;3.53;1.55;;;15.70;73.40;;;;;;2323652;53;20923;-68
2024/04/06 06:34:57;;;;;;;3.72;1.62;;;15.80;73.70;;;;;;2316989;54;20924;-70
2024/04/06 06:37:24;;;;;;;3.87;1.40;;;15.80;73.90;;;;;;2318879;54;20968;-70
2024/04/06 06:39:59;;;;;;;2.58;1.30;;;15.90;74.00;;;;;;2316083;54;20991;-69
2024/04/06 06:42:29;;;;;;;3.42;1.45;;;16.00;74.30;;;;;;2309371;54;20931;-70
2024/04/06 06:45:05;;;;;;;6.40;1.73;;;16.10;74.60;;;;;;2307979;54;21138;-70
2024/04/06 06:47:33;;;;;;;2.78;1.15;;;16.20;74.80;;;;;;2308882;54;20915;-71
2024/04/06 06:50:02;;;;;;;2.62;1.10;;;16.30;75.20;;;;;;2308521;54;20941;-70
2024/04/06 06:52:30;;;;;;;2.60;1.20;;;16.30;75.50;;;;;;2311127;53;21000;-68
2024/04/06 06:54:58;;;;;;;2.92;1.02;;;16.50;75.90;;;;;;2291606;54;20951;-69
2024/04/06 06:57:25;;;;;;;2.83;1.10;;;16.60;76.10;;;;;;2320677;54;20933;-68
2024/04/06 06:59:52;;;;;;;3.42;1.35;;;16.70;76.40;;;;;;2292362;54;21405;-70
2024/04/06 07:02:21;;;;;;;2.95;1.12;;;16.80;76.70;;;;;;2310137;54;21448;-70
2024/04/06 07:04:49;;;;;;;3.10;1.48;;;17.00;77.10;;;;;;2311903;54;21500;-72
2024/04/06 07:07:16;;;;;;;2.42;1.00;;;17.10;77.50;;;;;;2331704;54;20968;-69
2024/04/06 07:09:44;;;;;;;4.07;1.10;;;17.30;77.80;;;;;;2329611;54;21165;-72
2024/04/06 07:12:11;;;;;;;2.85;1.02;;;17.50;77.90;;;;;;2335250;54;20944;-70
2024/04/06 07:14:38;;;;;;;2.35;1.00;;;17.70;78.20;;;;;;2334974;54;21232;-68
2024/04/06 07:17:05;;;;;;;2.33;1.05;;;17.80;78.40;;;;;;2335341;54;20902;-69
2024/04/06 07:19:32;;;;;;;3.58;1.80;;;18.00;78.70;;;;;;2331590;54;20987;-72
2024/04/06 07:21:58;;;;;;;3.47;1.92;;;18.20;78.70;;;;;;2332671;53;21208;-70
2024/04/06 07:24:25;;;;;;;3.70;1.92;;;18.30;78.70;;;;;;2335774;54;21442;-70
2024/04/06 07:26:51;;;;;;;4.20;2.10;;;18.50;78.70;;;;;;2335982;54;21072;-69
2024/04/06 07:29:18;;;;;;;4.12;2.25;;;18.70;78.90;;;;;;2318721;54;21039;-72
2024/04/06 07:31:48;;;;;;;3.12;1.77;;;18.80;79.60;;;;;;2326216;54;20962;-69
2024/04/06 07:34:18;;;;;;;3.00;1.67;;;19.00;78.80;;;;;;2335570;53;21300;-71
2024/04/06 07:36:50;;;;;;;3.10;1.48;;;19.20;78.70;;;;;;2326487;55;20939;-69
2024/04/06 07:39:16;;;;;;;2.83;1.50;;;19.30;78.80;;;;;;2338364;53;21024;-70
2024/04/06 07:41:46;;;;;;;4.47;2.05;;;19.40;78.50;;;;;;2309403;54;21292;-70
2024/04/06 07:44:12;;;;;;;2.83;1.33;;;19.60;78.30;;;;;;2339678;53;21338;-70
2024/04/06 07:46:39;;;;;;;4.55;1.30;;;19.70;78.10;;;;;;2329819;54;21280;-72
2024/04/06 07:49:06;;;;;;;3.45;1.30;;;19.80;78.00;;;;;;2333521;53;20916;-72
2024/04/06 07:51:33;;;;;;;2.75;1.10;;;19.90;77.70;;;;;;2329950;53;21020;-70
2024/04/06 07:54:00;;;;;;;3.33;1.10;;;20.00;77.70;;;;;;2335073;54;21775;-70
2024/04/06 07:56:27;;;;;;;3.12;1.20;;;20.10;77.60;;;;;;2335032;54;21407;-69
2024/04/06 07:58:53;;;;;;;2.67;1.08;;;20.10;77.30;;;;;;2335791;54;21450;-70
2024/04/06 08:01:20;;;;;;;2.58;1.10;;;20.20;77.20;;;;;;2330637;53;20928;-71
2024/04/06 08:03:46;;;;;;;3.08;1.33;;;20.30;77.10;;;;;;2333717;54;21734;-69
2024/04/06 08:06:12;;;;;;;5.65;1.30;;;20.30;77.10;;;;;;2326976;54;21839;-70
2024/04/06 08:08:45;;;;;;;2.55;1.35;;;20.40;77.20;;;;;;2336390;54;21324;-71
2024/04/06 08:11:12;;;;;;;2.33;1.12;;;20.50;77.20;;;;;;2329857;54;21299;-69
2024/04/06 08:13:43;;;;;;;2.55;1.10;;;20.60;77.30;;;;;;2332611;54;20929;-71
2024/04/06 08:16:10;;;;;;;2.53;1.17;;;20.60;77.30;;;;;;2334633;54;21001;-69
2024/04/06 08:18:36;;;;;;;3.40;1.20;;;20.80;77.50;;;;;;2334561;54;21053;-71
2024/04/06 08:21:04;;;;;;;4.50;1.33;;;20.80;77.60;;;;;;2335052;54;20948;-71
2024/04/06 08:23:30;;;;;;;2.70;1.10;;;20.90;77.70;;;;;;2334468;54;21204;-72
2024/04/06 08:25:57;;;;;;;4.22;1.50;;;21.00;77.90;;;;;;2335216;54;21216;-73
2024/04/06 08:28:23;;;;;;;2.45;1.12;;;21.10;78.20;;;;;;2330729;54;22222;-72
2024/04/06 08:30:51;;;;;;;2.42;1.08;;;21.20;78.30;;;;;;2327617;54;21056;-73
2024/04/06 08:33:18;;;;;;;2.67;1.17;;;21.30;78.20;;;;;;2329279;54;20917;-69
2024/04/06 08:35:44;;;;;;;3.25;1.52;;;21.40;78.50;;;;;;2335337;54;20952;-69
2024/04/06 08:38:12;;;;;;;4.22;1.40;;;21.50;78.60;;;;;;2326082;54;20956;-70
2024/04/06 08:40:41;;;;;;;3.45;1.60;;;21.70;78.70;;;;;;2330586;54;20932;-71
2024/04/06 08:43:12;;;;;;;4.07;1.85;;;21.80;78.30;;;;;;2333417;54;20917;-73
2024/04/06 08:45:42;;;;;;;4.40;1.75;;;21.90;78.30;;;;;;2324901;54;21268;-72
2024/04/06 08:48:09;;;;;;;4.28;2.20;;;22.10;78.60;;;;;;2329402;54;21553;-71
2024/04/06 08:50:36;;;;;;;3.08;1.75;;;22.20;79.20;;;;;;2325072;54;20953;-69
2024/04/06 08:53:07;;;;;;;2.87;1.58;;;22.30;79.20;;;;;;2335269;54;20948;-71
2024/04/06 08:55:33;;;;;;;3.20;1.75;;;22.50;78.60;;;;;;2327958;54;20991;-69
2024/04/06 08:58:00;;;;;;;3.12;1.42;;;22.60;80.00;;;;;;2333593;54;21477;-71
2024/04/06 09:00:29;;;;;;;3.20;1.60;;;22.70;79.40;;;;;;2334328;54;20933;-71
2024/04/06 09:02:55;;;;;;;3.60;1.70;;;22.90;79.70;;;;;;2335257;54;21774;-69
2024/04/06 09:05:21;;;;;;;3.08;1.42;;;23.00;80.00;;;;;;2334322;54;20945;-68
2024/04/06 09:07:48;;;;;;;2.75;1.40;;;23.20;80.10;;;;;;2334896;54;20949;-70
2024/04/06 09:10:18;;;;;;;2.83;1.37;;;23.40;80.10;;;;;;2334530;54;21438;-73
2024/04/06 09:12:44;;;;;;;4.85;1.98;;;23.50;79.60;;;;;;2324246;55;21367;-69
2024/04/06 09:15:14;;;;;;;2.60;1.42;;;23.70;80.30;;;;;;2321852;54;20948;-69
2024/04/06 09:17:46;;;;;;;3.55;1.45;;;23.80;80.30;;;;;;2328716;54;20920;-69
2024/04/06 09:20:13;;;;;;;3.22;1.45;;;24.00;79.90;;;;;;2334989;54;21161;-69
2024/04/06 09:22:42;;;;;;;4.35;1.90;;;24.20;80.80;;;;;;2335053;54;20977;-70
2024/04/06 09:25:08;;;;;;;4.50;1.40;;;24.30;80.40;;;;;;2335364;54;21423;-72
2024/04/06 09:27:42;;;;;;;3.20;1.12;;;24.50;80.40;;;;;;2334751;54;21020;-71
2024/04/06 09:30:09;;;;;;;2.42;1.12;;;24.60;80.20;;;;;;2334976;54;20953;-71
2024/04/06 09:32:35;;;;;;;3.83;1.50;;;24.80;80.10;;;;;;2334752;54;21009;-70
2024/04/06 09:35:02;;;;;;;3.65;1.60;;;25.00;79.80;;;;;;2334878;54;20917;-69
2024/04/06 09:37:36;;;;;;;3.12;1.48;;;25.10;80.10;;;;;;2334444;54;20949;-69
2024/04/06 09:40:05;;;;;;;3.67;1.20;;;25.30;78.30;;;;;;2334925;54;21865;-69
2024/04/06 09:42:31;;;;;;;2.97;1.30;;;25.50;79.30;;;;;;2334831;54;20961;-69
2024/04/06 09:45:00;;;;;;;2.92;1.20;;;25.50;78.90;;;;;;2335232;54;21676;-67
2024/04/06 09:47:27;;;;;;;2.60;1.48;;;25.70;78.70;;;;;;2334540;54;20978;-69
2024/04/06 09:49:53;;;;;;;3.90;1.42;;;25.80;78.30;;;;;;2335462;54;20988;-68
2024/04/06 09:52:20;;;;;;;4.95;1.35;;;25.90;77.70;;;;;;2334105;54;21784;-69
2024/04/06 09:54:47;;;;;;;2.58;1.10;;;26.10;77.80;;;;;;2335326;53;20929;-68
2024/04/06 09:57:15;;;;;;;3.30;1.20;;;26.20;77.60;;;;;;2334255;53;20959;-68
2024/04/06 09:59:42;;;;;;;2.60;1.08;;;26.40;77.40;;;;;;2334961;54;20984;-68
2024/04/06 10:02:09;;;;;;;2.83;1.00;;;26.50;77.40;;;;;;2334820;54;21006;-70
2024/04/06 10:04:36;;;;;;;2.65;0.95;;;26.60;76.70;;;;;;2334487;53;21208;-71
2024/04/06 10:07:03;;;;;;;2.25;0.95;;;26.70;75.50;;;;;;2335294;54;20933;-72
2024/04/06 10:09:30;;;;;;;3.83;1.33;;;26.80;74.90;;;;;;2328587;53;20992;-71
2024/04/06 10:12:01;;;;;;;1.87;0.80;;;26.90;73.40;;;;;;2332821;54;21165;-70
2024/04/06 10:14:27;;;;;;;2.65;0.90;;;27.10;71.40;;;;;;2333918;54;20945;-70
2024/04/06 10:17:08;;;;;;;2.75;0.70;;;27.20;71.90;;;;;;2335691;54;21316;-72
2024/04/06 10:19:38;;;;;;;1.50;0.55;;;27.30;67.90;;;;;;2339019;53;22144;-74
2024/04/06 10:22:06;;;;;;;1.85;0.70;;;27.40;69.70;;;;;;2319085;55;20925;-73
2024/04/06 10:24:34;;;;;;;1.87;0.65;;;27.50;71.90;;;;;;2329785;54;20953;-72
2024/04/06 10:27:00;;;;;;;1.45;0.60;;;27.50;69.90;;;;;;2334833;54;20929;-74
2024/04/06 10:29:31;;;;;;;1.00;0.40;;;27.60;70.50;;;;;;2333518;54;21854;-72
2024/04/06 10:32:01;;;;;;;2.62;0.70;;;27.70;67.50;;;;;;2335416;54;21410;-72
2024/04/06 10:34:28;;;;;;;1.50;0.60;;;27.80;68.40;;;;;;2334540;54;20948;-72
2024/04/06 10:36:57;;;;;;;1.55;0.77;;;27.90;68.60;;;;;;2335279;54;21033;-70
2024/04/06 10:39:24;;;;;;;1.48;0.62;;;27.90;68.30;;;;;;2334494;54;20910;-71
2024/04/06 10:41:51;;;;;;;1.60;0.65;;;28.00;68.80;;;;;;2335275;54;21820;-72
2024/04/06 10:44:17;;;;;;;1.67;0.50;;;28.00;67.20;;;;;;2335023;54;21053;-72
2024/04/06 10:46:43;;;;;;;1.55;0.50;;;28.10;67.00;;;;;;2335378;54;21418;-73
2024/04/06 10:49:10;;;;;;;1.37;0.40;;;28.10;67.50;;;;;;2335642;54;20929;-72
2024/04/06 10:51:37;;;;;;;1.65;0.60;;;28.20;67.00;;;;;;2334962;54;20984;-73
2024/04/06 10:54:04;;;;;;;1.98;0.57;;;28.30;66.70;;;;;;2337853;54;21096;-73
2024/04/06 10:56:30;;;;;;;1.50;0.50;;;28.30;65.50;;;;;;2322763;54;20945;-74
2024/04/06 10:58:56;;;;;;;2.47;0.68;;;28.40;66.00;;;;;;2335195;54;21656;-71
2024/04/06 11:01:23;;;;;;;2.58;0.50;;;28.50;64.10;;;;;;2331858;54;21291;-72
2024/04/06 11:03:52;;;;;;;1.27;0.50;;;28.50;65.30;;;;;;2328172;54;20950;-72
2024/04/06 11:06:19;;;;;;;1.55;0.50;;;28.60;63.50;;;;;;2334489;54;21161;-71
2024/04/06 11:08:47;;;;;;;1.90;0.50;;;28.70;64.70;;;;;;2335287;54;20995;-73
2024/04/06 11:11:13;;;;;;;1.80;0.60;;;28.70;65.10;;;;;;2335110;54;20979;-72
2024/04/06 11:13:40;;;;;;;1.92;0.50;;;28.80;65.20;;;;;;2326820;54;21005;-72
2024/04/06 11:16:09;;;;;;;3.45;0.77;;;28.90;63.90;;;;;;2335196;54;20949;-73
2024/04/06 11:18:43;;;;;;;2.53;0.65;;;29.00;61.20;;;;;;2334634;53;21789;-72
2024/04/06 11:21:10;;;;;;;2.58;0.70;;;29.10;59.50;;;;;;2334921;54;21716;-72
2024/04/06 11:23:37;;;;;;;1.15;0.37;;;29.20;61.70;;;;;;2326793;53;21511;-73
2024/04/06 11:26:04;;;;;;;0.82;0.37;;;29.20;61.30;;;;;;2335303;54;20917;-71
2024/04/06 11:28:33;;;;;;;1.48;0.60;;;29.30;62.20;;;;;;2334610;54;20950;-72
2024/04/06 11:31:00;;;;;;;1.90;0.50;;;29.40;63.40;;;;;;2335434;54;20937;-71
2024/04/06 11:33:27;;;;;;;3.17;0.50;;;29.50;62.70;;;;;;2334482;54;21747;-72
2024/04/06 11:35:56;;;;;;;1.62;0.60;;;29.60;63.20;;;;;;2335546;54;20917;-73
2024/04/06 11:38:22;;;;;;;2.20;0.85;;;29.70;61.60;;;;;;2334352;54;20957;-71
2024/04/06 11:40:52;;;;;;;1.90;0.70;;;29.80;62.40;;;;;;2338267;53;21423;-73
2024/04/06 11:43:19;;;;;;;1.33;0.50;;;29.80;61.50;;;;;;2324918;54;20992;-72
2024/04/06 11:45:46;;;;;;;1.27;0.50;;;29.90;61.00;;;;;;2334841;54;21304;-73
2024/04/06 11:48:13;;;;;;;1.62;0.60;;;30.00;62.10;;;;;;2335818;53;20944;-73
2024/04/06 11:50:40;;;;;;;1.33;0.50;;;30.00;61.50;;;;;;2327005;54;20960;-71
2024/04/06 11:53:09;;;;;;;1.40;0.60;;;30.10;60.70;;;;;;2335612;54;21823;-74
2024/04/06 11:55:38;;;;;;;1.67;0.60;;;30.20;60.00;;;;;;2335165;54;20984;-72
2024/04/06 11:58:05;;;;;;;1.65;0.60;;;30.20;58.20;;;;;;2335348;54;20941;-73
2024/04/06 12:00:31;;;;;;;1.33;0.35;;;30.20;59.00;;;;;;2335025;54;21236;-73
2024/04/06 12:02:57;;;;;;;1.40;0.50;;;30.20;59.70;;;;;;2335252;54;21419;-72
2024/04/06 12:05:24;;;;;;;2.87;0.70;;;30.30;59.90;;;;;;2334755;54;20988;-72
2024/04/06 12:07:51;;;;;;;1.00;0.32;;;30.30;60.30;;;;;;2336035;53;21291;-72
2024/04/06 12:10:20;;;;;;;1.83;0.50;;;30.40;60.00;;;;;;2334847;53;20940;-74
2024/04/06 12:12:46;;;;;;;3.90;0.70;;;30.40;59.20;;;;;;2310933;54;21047;-71
2024/04/06 12:15:13;;;;;;;1.70;0.60;;;30.50;60.60;;;;;;2334584;53;20910;-69
2024/04/06 12:17:39;;;;;;;1.87;0.70;;;30.50;59.20;;;;;;2334386;54;20957;-69
2024/04/06 12:20:06;;;;;;;1.42;0.60;;;30.60;59.70;;;;;;2335492;54;21299;-70
2024/04/06 12:22:32;;;;;;;1.60;0.40;;;30.70;60.40;;;;;;2335482;54;21685;-67
2024/04/06 12:24:58;;;;;;;2.20;0.75;;;30.70;60.70;;;;;;2335188;53;20980;-68
2024/04/06 12:27:25;;;;;;;1.58;0.50;;;30.80;61.00;;;;;;2334065;54;20981;-67
2024/04/06 12:29:51;;;;;;;1.85;0.45;;;30.90;60.60;;;;;;2334917;54;21292;-71
2024/04/06 12:32:17;;;;;;;1.02;0.45;;;30.90;58.90;;;;;;2334346;53;21505;-69
2024/04/06 12:34:44;;;;;;;1.77;0.55;;;31.00;59.80;;;;;;2335117;54;20970;-69
2024/04/06 12:37:13;;;;;;;1.80;0.60;;;31.00;60.20;;;;;;2334922;54;21610;-70
2024/04/06 12:39:40;;;;;;;1.52;0.50;;;31.10;59.50;;;;;;2334706;54;21550;-72
2024/04/06 12:42:06;;;;;;;1.85;0.55;;;31.10;60.10;;;;;;2335497;54;21024;-69
2024/04/06 12:44:33;;;;;;;1.02;0.40;;;31.20;60.90;;;;;;2335290;54;21447;-68
2024/04/06 12:47:00;;;;;;;1.62;0.62;;;31.30;60.00;;;;;;2336890;54;20981;-69
2024/04/06 12:49:27;;;;;;;1.90;0.57;;;31.30;59.90;;;;;;2324943;54;20977;-70